createdAt,value
2018-11-06T00:02:35.016Z,116.20
2018-11-06T00:05:12.966Z,123.35
2018-11-06T00:07:48.223Z,104.10
2018-11-06T00:10:23.701Z,102.05
2018-11-06T00:12:59.355Z,122.92
2018-11-06T00:15:34.695Z,109.87
2018-11-06T00:18:10.192Z,92.60
2018-11-06T00:20:45.534Z,118.82
2018-11-06T00:23:20.772Z,102.25
2018-11-06T00:25:56.171Z,173.43
2018-11-06T00:28:31.474Z,105.87
2018-11-06T00:31:17.723Z,117.57
2018-11-06T00:34:03.362Z,84.97
2018-11-06T00:36:38.801Z,86.50
2018-11-06T00:39:14.251Z,103.97
2018-11-06T00:41:50.006Z,93.78
2018-11-06T00:44:25.541Z,84.47
2018-11-06T00:47:01.071Z,77.47
2018-11-06T00:49:36.391Z,81.67
2018-11-06T00:52:11.705Z,83.60
2018-11-06T00:54:47.101Z,69.15
2018-11-06T00:57:22.584Z,73.30
2018-11-06T00:59:58.526Z,82.45
2018-11-06T01:02:33.884Z,85.50
2018-11-06T01:05:10.342Z,81.28
2018-11-06T01:07:47.748Z,87.47
2018-11-06T01:10:23.041Z,89.00
2018-11-06T01:12:58.406Z,85.47
2018-11-06T01:15:33.582Z,88.45
2018-11-06T01:18:09.070Z,85.70
2018-11-06T01:20:44.422Z,90.35
2018-11-06T01:23:19.973Z,79.45
2018-11-06T01:25:55.703Z,99.00
2018-11-06T01:28:31.261Z,81.95
2018-11-06T01:31:06.581Z,88.12
2018-11-06T01:33:42.087Z,81.42
2018-11-06T01:36:17.563Z,67.92
2018-11-06T01:38:52.920Z,69.80
2018-11-06T01:41:28.259Z,84.30
2018-11-06T01:44:03.821Z,98.05
2018-11-06T01:46:39.444Z,117.42
2018-11-06T01:49:15.037Z,92.20
2018-11-06T01:51:50.653Z,80.30
2018-11-06T01:54:26.027Z,83.50
2018-11-06T01:57:01.343Z,103.62
2018-11-06T01:59:36.601Z,106.10
2018-11-06T02:02:11.912Z,83.25
2018-11-06T02:04:47.274Z,103.25
2018-11-06T02:07:22.590Z,95.55
2018-11-06T02:09:57.953Z,98.33
2018-11-06T02:12:33.335Z,101.42
2018-11-06T02:15:09.652Z,85.30
2018-11-06T02:17:45.531Z,103.15
2018-11-06T02:20:20.980Z,99.32
2018-11-06T02:22:56.584Z,73.37
2018-11-06T02:25:32.164Z,71.30
2018-11-06T02:28:07.764Z,68.87
2018-11-06T02:30:43.329Z,93.75
2018-11-06T02:33:18.976Z,77.47
2018-11-06T02:35:54.369Z,78.10
2018-11-06T02:38:29.748Z,88.12
2018-11-06T02:41:05.413Z,69.97
2018-11-06T02:43:40.520Z,88.25
2018-11-06T02:46:15.838Z,73.10
2018-11-06T02:48:51.154Z,99.77
2018-11-06T02:51:26.463Z,84.37
2018-11-06T02:54:01.588Z,82.20
2018-11-06T02:56:36.944Z,77.60
2018-11-06T02:59:12.372Z,95.22
2018-11-06T03:01:47.697Z,89.60
2018-11-06T03:04:23.192Z,78.52
2018-11-06T03:06:58.635Z,111.03
2018-11-06T03:09:33.946Z,90.42
2018-11-06T03:12:09.542Z,89.10
2018-11-06T03:14:44.965Z,104.27
2018-11-06T03:17:20.524Z,112.97
2018-11-06T03:19:56.061Z,88.67
2018-11-06T03:22:31.505Z,113.37
2018-11-06T03:25:07.331Z,75.57
2018-11-06T03:27:43.061Z,93.17
2018-11-06T03:30:18.405Z,81.87
2018-11-06T03:32:53.963Z,102.75
2018-11-06T03:35:29.272Z,97.75
2018-11-06T03:38:04.725Z,91.45
2018-11-06T03:40:40.106Z,95.95
2018-11-06T03:43:15.594Z,110.25
2018-11-06T03:45:51.128Z,101.70
2018-11-06T03:48:26.632Z,100.50
2018-11-06T03:51:01.984Z,79.70
2018-11-06T03:53:37.399Z,115.65
2018-11-06T03:56:12.822Z,83.58
2018-11-06T03:58:48.221Z,91.75
2018-11-06T04:01:23.868Z,103.25
2018-11-06T04:03:59.521Z,116.00
2018-11-06T04:06:35.165Z,115.92
2018-11-06T04:09:11.919Z,149.75
2018-11-06T04:11:47.243Z,129.15
2018-11-06T04:14:22.625Z,153.10
2018-11-06T04:16:58.081Z,163.28
2018-11-06T04:19:33.514Z,144.47
2018-11-06T04:22:09.054Z,147.17
2018-11-06T04:24:44.699Z,117.87
2018-11-06T04:27:20.052Z,112.72
2018-11-06T04:29:55.595Z,145.75
2018-11-06T04:32:31.142Z,116.57
2018-11-06T04:35:06.889Z,154.25
2018-11-06T04:37:42.413Z,129.87
2018-11-06T04:40:17.833Z,138.88
2018-11-06T04:42:53.222Z,118.35
2018-11-06T04:45:28.866Z,130.60
2018-11-06T04:48:04.415Z,134.97
2018-11-06T04:50:39.933Z,131.37
2018-11-06T04:53:15.806Z,127.55
2018-11-06T04:55:51.165Z,162.35
2018-11-06T04:58:26.647Z,129.90
2018-11-06T05:01:02.471Z,142.85
2018-11-06T05:03:41.863Z,120.10
2018-11-06T05:06:18.503Z,143.93
2018-11-06T05:08:53.997Z,165.68
2018-11-06T05:11:29.525Z,149.38
2018-11-06T05:14:05.866Z,178.82
2018-11-06T05:16:41.242Z,166.80
2018-11-06T05:19:16.624Z,181.55
2018-11-06T05:21:51.925Z,171.98
2018-11-06T05:24:27.353Z,199.87
2018-11-06T05:27:03.394Z,144.35
2018-11-06T05:29:39.085Z,142.18
2018-11-06T05:32:14.535Z,175.87
2018-11-06T05:34:50.183Z,122.75
2018-11-06T05:37:25.536Z,142.65
2018-11-06T05:40:12.109Z,128.10
2018-11-06T05:42:47.627Z,187.30
2018-11-06T05:45:23.022Z,105.65
2018-11-06T05:47:58.641Z,139.37
2018-11-06T05:50:34.172Z,89.13
2018-11-06T05:53:09.617Z,89.40
2018-11-06T05:55:44.996Z,102.53
2018-11-06T05:58:20.502Z,108.75
2018-11-06T06:00:55.924Z,89.75
2018-11-06T06:03:31.434Z,85.80
2018-11-06T06:06:06.889Z,89.30
2018-11-06T06:08:42.535Z,84.42
2018-11-06T06:11:18.236Z,83.10
2018-11-06T06:13:53.842Z,65.80
2018-11-06T06:16:29.374Z,62.95
2018-11-06T06:19:05.445Z,63.42
2018-11-06T06:21:40.924Z,84.28
2018-11-06T06:24:16.324Z,74.20
2018-11-06T06:26:51.738Z,80.28
2018-11-06T06:29:27.224Z,81.45
2018-11-06T06:32:02.501Z,86.37
2018-11-06T06:34:37.947Z,92.30
2018-11-06T06:37:13.435Z,62.90
2018-11-06T06:39:49.056Z,73.07
2018-11-06T06:42:24.437Z,85.95
2018-11-06T06:45:00.017Z,69.75
2018-11-06T06:47:35.508Z,79.82
2018-11-06T06:50:16.769Z,71.22
2018-11-06T06:52:52.206Z,61.45
2018-11-06T06:55:27.482Z,72.60
2018-11-06T06:58:03.121Z,101.20
2018-11-06T07:00:38.542Z,92.25
2018-11-06T07:03:14.011Z,59.70
2018-11-06T07:05:49.571Z,57.95
2018-11-06T07:08:25.001Z,55.85
2018-11-06T07:11:00.451Z,65.20
2018-11-06T07:13:35.764Z,44.53
2018-11-06T07:16:11.134Z,52.05
2018-11-06T07:18:46.790Z,53.60
2018-11-06T07:21:22.014Z,50.03
2018-11-06T07:23:57.761Z,58.78
2018-11-06T07:26:33.592Z,77.53
2018-11-06T07:29:09.020Z,77.85
2018-11-06T07:31:44.585Z,47.88
2018-11-06T07:34:19.892Z,38.40
2018-11-06T07:36:55.308Z,58.33
2018-11-06T07:39:30.709Z,68.67
2018-11-06T07:42:06.573Z,65.40
2018-11-06T07:44:41.925Z,84.75
2018-11-06T07:47:17.258Z,65.08
2018-11-06T07:49:52.524Z,67.37
2018-11-06T07:52:27.854Z,45.58
2018-11-06T07:55:03.282Z,60.10
2018-11-06T07:57:38.754Z,40.58
2018-11-06T08:00:18.473Z,53.48
2018-11-06T08:02:53.833Z,63.35
2018-11-06T08:05:29.430Z,69.85
2018-11-06T08:08:04.923Z,54.13
2018-11-06T08:10:40.314Z,88.47
2018-11-06T08:13:15.614Z,62.35
2018-11-06T08:15:51.055Z,67.58
2018-11-06T08:18:26.584Z,70.95
2018-11-06T08:21:02.232Z,49.00
2018-11-06T08:23:37.754Z,55.70
2018-11-06T08:26:13.504Z,53.90
2018-11-06T08:28:48.951Z,46.48
2018-11-06T08:31:24.710Z,37.67
2018-11-06T08:33:59.833Z,36.28
2018-11-06T08:36:35.250Z,32.58
2018-11-06T08:39:11.491Z,34.73
2018-11-06T08:41:46.952Z,36.25
2018-11-06T08:44:22.352Z,37.03
2018-11-06T08:46:57.991Z,28.83
2018-11-06T08:49:33.543Z,51.50
2018-11-06T08:52:09.192Z,29.20
2018-11-06T08:54:44.836Z,30.48
2018-11-06T08:57:20.179Z,38.70
2018-11-06T08:59:55.594Z,26.90
2018-11-06T09:02:31.084Z,32.00
2018-11-06T09:05:07.760Z,30.90
2018-11-06T09:07:43.438Z,35.52
2018-11-06T09:10:19.197Z,41.20
2018-11-06T09:12:55.281Z,34.58
2018-11-06T09:15:30.509Z,37.17
2018-11-06T09:18:06.235Z,36.63
2018-11-06T09:20:41.634Z,40.73
2018-11-06T09:23:17.291Z,31.75
2018-11-06T09:25:52.645Z,35.58
2018-11-06T09:28:28.003Z,28.35
2018-11-06T09:31:03.367Z,37.13
2018-11-06T09:33:38.823Z,27.98
2018-11-06T09:36:14.273Z,29.55
2018-11-06T09:38:49.591Z,31.37
2018-11-06T09:41:25.457Z,31.77
2018-11-06T09:44:00.751Z,35.58
2018-11-06T09:46:36.570Z,30.62
2018-11-06T09:49:12.208Z,28.27
2018-11-06T09:51:47.685Z,27.37
2018-11-06T09:54:23.293Z,26.73
2018-11-06T09:56:58.790Z,28.05
2018-11-06T09:59:34.165Z,27.15
2018-11-06T10:02:09.490Z,29.12
2018-11-06T10:04:44.924Z,28.70
2018-11-06T10:07:20.675Z,32.33
2018-11-06T10:09:55.950Z,36.05
2018-11-06T10:12:31.235Z,26.70
2018-11-06T10:15:08.036Z,30.82
2018-11-06T10:17:45.031Z,34.67
2018-11-06T10:20:21.233Z,29.75
2018-11-06T10:22:56.677Z,29.67
2018-11-06T10:25:32.075Z,31.48
2018-11-06T10:28:07.526Z,29.92
2018-11-06T10:30:42.745Z,31.17
2018-11-06T10:33:18.241Z,31.57
2018-11-06T10:35:53.519Z,31.75
2018-11-06T10:38:29.204Z,29.48
2018-11-06T10:41:04.719Z,28.45
2018-11-06T10:43:40.289Z,36.93
2018-11-06T10:46:15.792Z,38.70
2018-11-06T10:48:51.361Z,28.92
2018-11-06T10:51:26.861Z,30.32
2018-11-06T10:54:02.355Z,32.38
2018-11-06T10:56:38.079Z,30.62
2018-11-06T10:59:13.652Z,35.52
2018-11-06T11:01:54.091Z,32.15
2018-11-06T11:04:29.976Z,31.82
2018-11-06T11:07:05.192Z,28.85
2018-11-06T11:09:41.057Z,33.08
2018-11-06T11:12:16.689Z,34.85
2018-11-06T11:14:53.275Z,31.73
2018-11-06T11:17:28.638Z,34.20
2018-11-06T11:20:04.460Z,32.13
2018-11-06T11:22:40.134Z,37.30
2018-11-06T11:25:16.473Z,32.17
2018-11-06T11:27:51.716Z,33.88
2018-11-06T11:30:27.971Z,40.25
2018-11-06T11:33:03.984Z,39.98
2018-11-06T11:35:39.974Z,37.63
2018-11-06T11:38:16.004Z,41.37
2018-11-06T11:40:51.610Z,32.15
2018-11-06T11:43:27.271Z,34.85
2018-11-06T11:46:02.960Z,32.98
2018-11-06T11:48:38.660Z,36.10
2018-11-06T11:51:14.114Z,33.33
2018-11-06T11:53:49.425Z,39.38
2018-11-06T11:56:24.740Z,31.10
2018-11-06T11:59:00.330Z,35.73
2018-11-06T12:01:35.896Z,37.88
2018-11-06T12:04:11.243Z,43.28
2018-11-06T12:06:46.666Z,37.38
2018-11-06T12:09:22.122Z,39.23
2018-11-06T12:11:57.381Z,38.78
2018-11-06T12:14:32.928Z,36.35
2018-11-06T12:17:08.473Z,37.83
2018-11-06T12:19:44.067Z,38.33
2018-11-06T12:22:19.674Z,39.58
2018-11-06T12:24:54.969Z,36.50
2018-11-06T12:27:30.341Z,37.65
2018-11-06T12:30:07.322Z,40.48
2018-11-06T12:32:43.062Z,38.48
2018-11-06T12:35:18.653Z,43.73
2018-11-06T12:37:54.080Z,38.55
2018-11-06T12:40:29.430Z,41.00
2018-11-06T12:43:04.831Z,40.38
2018-11-06T12:45:40.506Z,40.15
2018-11-06T12:48:15.951Z,41.05
2018-11-06T12:50:51.598Z,36.38
2018-11-06T12:53:26.871Z,44.67
2018-11-06T12:56:02.385Z,43.50
2018-11-06T12:58:37.742Z,44.30
2018-11-06T13:01:13.192Z,39.55
2018-11-06T13:03:48.703Z,40.45
2018-11-06T13:06:24.093Z,39.63
2018-11-06T13:08:59.372Z,39.80
2018-11-06T13:11:34.852Z,37.35
2018-11-06T13:14:10.615Z,46.83
2018-11-06T13:16:46.278Z,39.48
2018-11-06T13:19:21.816Z,47.25
2018-11-06T13:21:57.302Z,41.98
2018-11-06T13:24:32.771Z,41.88
2018-11-06T13:27:08.151Z,44.70
2018-11-06T13:29:43.597Z,38.98
2018-11-06T13:32:19.168Z,39.40
2018-11-06T13:34:54.694Z,39.08
2018-11-06T13:37:29.993Z,43.28
2018-11-06T13:40:06.204Z,40.48
2018-11-06T13:42:41.950Z,39.58
2018-11-06T13:45:24.714Z,40.78
2018-11-06T13:48:00.151Z,36.88
2018-11-06T13:50:35.331Z,39.50
2018-11-06T13:53:11.539Z,52.93
2018-11-06T13:55:47.019Z,43.20
2018-11-06T13:58:22.276Z,43.92
2018-11-06T14:00:58.025Z,39.18
2018-11-06T14:03:33.651Z,40.70
2018-11-06T14:06:09.122Z,41.45
2018-11-06T14:08:44.555Z,39.03
2018-11-06T14:11:19.872Z,41.00
2018-11-06T14:13:55.317Z,38.10
2018-11-06T14:16:30.680Z,39.65
2018-11-06T14:19:06.113Z,38.50
2018-11-06T14:21:41.520Z,42.38
2018-11-06T14:24:16.851Z,40.28
2018-11-06T14:26:52.277Z,40.88
2018-11-06T14:29:27.676Z,40.40
2018-11-06T14:32:05.915Z,42.98
2018-11-06T14:34:41.364Z,43.65
2018-11-06T14:37:16.563Z,41.10
2018-11-06T14:39:52.125Z,41.23
2018-11-06T14:42:27.718Z,41.92
2018-11-06T14:45:03.113Z,45.28
2018-11-06T14:47:38.754Z,41.50
2018-11-06T14:50:14.258Z,49.18
2018-11-06T14:52:49.681Z,42.40
2018-11-06T14:55:25.070Z,49.77
2018-11-06T14:58:00.564Z,45.17
2018-11-06T15:00:36.059Z,43.30
2018-11-06T15:03:11.838Z,48.13
2018-11-06T15:05:47.275Z,48.58
2018-11-06T15:08:22.997Z,45.45
2018-11-06T15:10:58.460Z,48.63
2018-11-06T15:13:34.007Z,48.40
2018-11-06T15:16:09.684Z,56.02
2018-11-06T15:18:45.314Z,51.75
2018-11-06T15:21:20.745Z,58.02
2018-11-06T15:23:56.325Z,53.95
2018-11-06T15:26:31.926Z,56.90
2018-11-06T15:29:07.396Z,63.78
2018-11-06T15:31:42.740Z,60.92
2018-11-06T15:34:18.254Z,67.55
2018-11-06T15:36:53.621Z,61.23
2018-11-06T15:39:29.164Z,62.33
2018-11-06T15:42:04.669Z,73.52
2018-11-06T15:44:40.491Z,66.70
2018-11-06T15:47:16.026Z,74.95
2018-11-06T15:49:51.556Z,63.15
2018-11-06T15:52:27.110Z,61.28
2018-11-06T15:55:02.569Z,70.17
2018-11-06T15:57:38.262Z,68.90
2018-11-06T16:00:16.445Z,66.67
2018-11-06T16:02:52.171Z,62.65
2018-11-06T16:05:27.514Z,65.65
2018-11-06T16:08:03.270Z,68.60
2018-11-06T16:10:38.765Z,76.77
2018-11-06T16:13:14.448Z,72.00
2018-11-06T16:15:49.767Z,68.87
2018-11-06T16:18:25.153Z,79.95
2018-11-06T16:21:00.740Z,70.37
2018-11-06T16:23:36.327Z,63.68
2018-11-06T16:26:11.741Z,56.45
2018-11-06T16:28:47.112Z,55.88
2018-11-06T16:31:22.386Z,54.60
2018-11-06T16:33:57.993Z,60.98
2018-11-06T16:36:33.310Z,49.48
2018-11-06T16:39:10.421Z,50.25
2018-11-06T16:41:45.732Z,62.58
2018-11-06T16:44:21.071Z,53.08
2018-11-06T16:46:56.709Z,64.65
2018-11-06T16:49:32.489Z,68.10
2018-11-06T16:52:07.886Z,56.85
2018-11-06T16:54:43.231Z,65.57
2018-11-06T16:57:18.723Z,73.05
2018-11-06T16:59:54.252Z,74.75
2018-11-06T17:02:29.493Z,56.28
2018-11-06T17:05:05.551Z,65.47
2018-11-06T17:07:41.098Z,62.55
2018-11-06T17:10:17.027Z,75.28
2018-11-06T17:12:52.469Z,58.58
2018-11-06T17:15:28.073Z,76.90
2018-11-06T17:18:03.277Z,88.50
2018-11-06T17:20:38.601Z,65.87
2018-11-06T17:23:14.114Z,67.87
2018-11-06T17:25:49.571Z,68.85
2018-11-06T17:28:24.918Z,76.15
2018-11-06T17:31:00.300Z,65.30
2018-11-06T17:33:35.887Z,58.28
2018-11-06T17:36:11.628Z,59.13
2018-11-06T17:38:46.968Z,58.60
2018-11-06T17:41:22.494Z,64.53
2018-11-06T17:43:57.941Z,60.35
2018-11-06T17:46:33.915Z,81.53
2018-11-06T17:49:09.222Z,81.17
2018-11-06T17:51:44.734Z,75.83
2018-11-06T17:54:20.220Z,63.25
2018-11-06T17:56:55.739Z,67.80
2018-11-06T17:59:31.537Z,63.13
2018-11-06T18:02:07.472Z,54.55
2018-11-06T18:04:43.069Z,56.53
2018-11-06T18:07:18.436Z,101.33
2018-11-06T18:09:54.101Z,86.47
2018-11-06T18:12:29.544Z,67.78
2018-11-06T18:15:05.124Z,63.05
2018-11-06T18:17:40.954Z,65.28
2018-11-06T18:20:16.455Z,62.05
2018-11-06T18:22:51.833Z,55.88
2018-11-06T18:25:27.616Z,52.53
2018-11-06T18:28:03.060Z,57.62
2018-11-06T18:30:38.557Z,57.03
2018-11-06T18:33:14.041Z,57.75
2018-11-06T18:35:49.459Z,61.50
2018-11-06T18:38:25.050Z,55.38
2018-11-06T18:41:00.231Z,67.53
2018-11-06T18:43:35.583Z,58.95
2018-11-06T18:46:10.914Z,47.43
2018-11-06T18:48:46.653Z,54.38
2018-11-06T18:51:22.031Z,55.75
2018-11-06T18:53:57.460Z,55.17
2018-11-06T18:56:33.091Z,48.45
2018-11-06T18:59:08.407Z,52.33
2018-11-06T19:01:43.686Z,56.08
2018-11-06T19:04:19.268Z,54.48
2018-11-06T19:06:54.625Z,48.48
2018-11-06T19:09:30.233Z,44.80
2018-11-06T19:12:05.996Z,49.10
2018-11-06T19:14:41.532Z,52.08
2018-11-06T19:17:16.986Z,46.50
2018-11-06T19:19:52.323Z,45.67
2018-11-06T19:22:27.643Z,53.50
2018-11-06T19:25:02.997Z,45.98
2018-11-06T19:27:38.556Z,44.50
2018-11-06T19:30:17.793Z,49.13
2018-11-06T19:32:53.565Z,40.55
2018-11-06T19:35:29.204Z,45.70
2018-11-06T19:38:04.725Z,49.10
2018-11-06T19:40:40.308Z,47.58
2018-11-06T19:43:15.717Z,43.87
2018-11-06T19:45:51.196Z,51.80
2018-11-06T19:48:26.701Z,49.77
2018-11-06T19:51:02.294Z,48.92
2018-11-06T19:53:37.868Z,55.05
2018-11-06T19:56:13.299Z,47.35
2018-11-06T19:58:48.894Z,43.92
2018-11-06T20:01:24.360Z,43.10
2018-11-06T20:03:59.662Z,45.00
2018-11-06T20:06:34.915Z,46.60
2018-11-06T20:09:11.272Z,43.85
2018-11-06T20:11:46.786Z,35.90
2018-11-06T20:14:22.291Z,41.20
2018-11-06T20:16:57.630Z,42.67
2018-11-06T20:19:33.090Z,46.70
2018-11-06T20:22:08.557Z,43.33
2018-11-06T20:24:44.094Z,45.75
2018-11-06T20:27:20.020Z,42.27
2018-11-06T20:29:55.413Z,39.90
2018-11-06T20:32:31.053Z,39.38
2018-11-06T20:35:07.393Z,40.83
2018-11-06T20:37:42.949Z,40.67
2018-11-06T20:40:19.906Z,37.05
2018-11-06T20:42:55.509Z,38.55
2018-11-06T20:45:31.071Z,34.05
2018-11-06T20:48:06.358Z,30.40
2018-11-06T20:50:41.886Z,35.48
2018-11-06T20:53:17.336Z,35.13
2018-11-06T20:55:52.778Z,36.00
2018-11-06T20:58:28.417Z,31.35
2018-11-06T21:01:03.965Z,30.97
2018-11-06T21:03:39.181Z,35.95
2018-11-06T21:06:14.491Z,29.90
2018-11-06T21:08:49.976Z,36.88
2018-11-06T21:11:25.314Z,38.08
2018-11-06T21:14:00.773Z,34.15
2018-11-06T21:16:36.247Z,35.80
2018-11-06T21:19:12.031Z,34.95
2018-11-06T21:21:47.471Z,34.35
2018-11-06T21:24:22.770Z,41.77
2018-11-06T21:26:58.148Z,37.53
2018-11-06T21:29:33.554Z,33.55
2018-11-06T21:32:09.218Z,31.90
2018-11-06T21:34:44.624Z,47.60
2018-11-06T21:37:19.823Z,46.53
2018-11-06T21:39:55.211Z,39.05
2018-11-06T21:42:30.680Z,37.40
2018-11-06T21:45:06.911Z,38.05
2018-11-06T21:47:43.111Z,35.08
2018-11-06T21:50:18.793Z,41.48
2018-11-06T21:52:54.166Z,34.20
2018-11-06T21:55:29.875Z,39.42
2018-11-06T21:58:05.473Z,44.48
2018-11-06T22:00:40.939Z,33.88
2018-11-06T22:03:16.614Z,34.67
2018-11-06T22:05:52.077Z,45.40
2018-11-06T22:08:27.554Z,35.35
2018-11-06T22:11:02.994Z,35.38
2018-11-06T22:13:38.523Z,28.45
2018-11-06T22:16:14.198Z,33.90
2018-11-06T22:18:49.553Z,34.83
2018-11-06T22:21:25.296Z,36.48
2018-11-06T22:24:00.831Z,34.25
2018-11-06T22:26:36.491Z,33.50
2018-11-06T22:29:12.016Z,33.83
2018-11-06T22:31:47.766Z,36.48
2018-11-06T22:34:22.983Z,41.60
2018-11-06T22:36:58.524Z,44.38
2018-11-06T22:39:34.045Z,44.10
2018-11-06T22:42:09.410Z,35.35
2018-11-06T22:44:44.933Z,41.10
2018-11-06T22:47:20.541Z,41.42
2018-11-06T22:49:55.905Z,39.75
2018-11-06T22:52:31.221Z,39.13
2018-11-06T22:55:06.751Z,38.15
2018-11-06T22:57:42.374Z,41.00
2018-11-06T23:00:23.575Z,40.17
2018-11-06T23:02:59.053Z,46.37
2018-11-06T23:05:34.653Z,40.12
2018-11-06T23:08:15.194Z,43.85
2018-11-06T23:10:50.508Z,42.73
2018-11-06T23:13:26.510Z,41.92
2018-11-06T23:16:02.064Z,43.35
2018-11-06T23:18:37.449Z,44.10
2018-11-06T23:21:12.784Z,37.80
2018-11-06T23:23:48.201Z,39.45
2018-11-06T23:26:23.913Z,51.37
2018-11-06T23:28:59.521Z,39.27
2018-11-06T23:31:35.225Z,50.88
2018-11-06T23:34:10.904Z,53.60
2018-11-06T23:36:46.605Z,46.48
2018-11-06T23:39:22.354Z,59.83
2018-11-06T23:41:57.851Z,45.28
2018-11-06T23:44:33.396Z,42.15
2018-11-06T23:47:08.907Z,45.52
2018-11-06T23:49:45.265Z,44.77
2018-11-06T23:52:20.849Z,43.75
2018-11-06T23:54:56.365Z,40.15
2018-11-06T23:57:32.275Z,43.55
